LICD

Details ICAO LICD (LMP)
Name LAMPEDUSA
Region Italy
Timezone Europe/Rome (UTC+2.0)
Plans Departing 50
Arriving 93
Stats Elevation 70 ft / 21 m (AMSL)
Location 35.497966° 12.618077°
Runways 1
Magnetic Variation 2.763° E
Sunrise 2018-06-21 03:55:46 UTC / 2018-06-21 05:55:46 Local
Sunset 2018-06-21 18:29:17 UTC / 2018-06-21 20:29:17 Local
Advertisement - Login to hide

Runways

ID Width Length Bearing (true) Bearing (mag) Surface Threshold Offset Overrun Length
08 148 ft / 45 m 5,897 ft / 1,797 m 80.57° 77.81° Asphalt 0 ft / 0 m 0 ft / 0 m
26 148 ft / 45 m 5,897 ft / 1,797 m 260.59° 257.83° Asphalt 0 ft / 0 m 0 ft / 0 m

Approach Navaids

Runway Type Ident Frequency Range Bearing (true) Bearing (mag) Slope Elevation
26 Localiser ILMA 111.30 MHz 20 nm / 37 km 260.60° 257.84° - 70 ft / 21 m (AMSL)
26 DME ILMA 111.30 MHz 25 nm / 46 km - - - 70 ft / 21 m (AMSL)

Map

Weather


0- 5 10 15 20 25 30 35+ Temperature / ° C

Clouds and Precipitation
Forecast for 2018-06-21 18:00 UTC. Updated 4 hours ago

Ground ~20,000 ft ~40,000 ft Winds

METAR

LICD 211850Z 12004KT CAVOK 23/20 Q1016

TAF

TAF LICD 211700Z 2118/2218 VRB04KT 9999 SCT020 BECMG 2210/2212 15010KT BECMG 2216/2218 VRB04KT

Frequencies

Tower 123.50 MHz INFO
Tower 122.10 MHz INFO
Warning: Do not use this data for real-world aviation or navigation. No guarantee of current accuracy is given.